Delray Beach, FL (33444)

6:51 PM EDT on August 03, 2015 (GMT -0400)
Lake Ida - Garden House | | Change Station
CLOSE
Current Station
Personal Weather Station
Location: Delray Beach, FL
Elevation: 0 ft
Nearby Weather Stations

Elev 0 ft 26.48 °N, 80.07 °W | Updated 24 seconds ago

Overcast
Overcast
80.8 °F
Feels Like 85 °F
N
0.0
Wind Variable Wind from SSW

Today
High -- | Low -- °F
--% Chance of Precip.
Yesterday
High -- | Low -- °F
Precip. -- in
6:46 AM 8:06 PM
Waning Gibbous, 83% visible
Pressure 30.00 in
Visibility 10.0 miles
Clouds Few 5500 ft
Heat Index 85 °F
Dew Point 71 °F
Humidity 72%
Rainfall 0.00 in
Snow Depth Not available.
UV 3 out of 12
Pollen 4.10 out of 12
Air Quality Not available.
Flu Activity Not available.
METAR KPMP 032153Z 29006KT 10SM FEW055 28/23 A3000 RMK AO2 SLP159 T02780228

More Conditions Fewer Conditions

Pressure 30.00 in
Visibility 10.0 miles
Clouds Few 5500 ft
Heat Index 85 °F
Dew Point 71 °F
Humidity 72%
Rainfall 0.00 in
Snow Depth Not available.
UV 3 out of 12
Pollen 4.10 out of 12
Air Quality Not available.
Flu Activity Not available.
METAR KPMP 032153Z 29006KT 10SM FEW055 28/23 A3000 RMK AO2 SLP159 T02780228

More Conditions Fewer Conditions

10-Day Weather Forecast

×

Almanac

Astronomy

Aug. 03, 2015 Rise Set
Actual Time
Civil Twilight
Nautical Twilight
Astronomical Twilight
Moon
Length of Visible Light
Length of Day
Tomorrow will be .
, % of the Moon is Illuminated

Today's Extremes

State Highs State Lows

Community

WunderPhotos

Upload Photos

1,843,785 photos uploaded!

WunderBlogs® & News

Nearby

Air Quality

  Air Quality AQ Index Pollutant
Not available.

Snow Depth

Station Depth Elevation

Earthquake Activity

City Distance Mag. Time & Date
Minimum magnitude displayed is 2.5.

Coastal Water Temperatures

Place Temperature

Stations

Nearby Weather Stations

Station Location Temp. Windchill Dew Point Humidity Wind Precip. Elev Updated Type